Time;durP1;ratioP1;P1;durP2;ratioP2;P2;SDS_P1;SDS_P2;PMS_P1;PMS_P2;Temp;Humidity;BMP_temperature;BMP_pressure;BME280_temperature;BME280_humidity;BME280_pressure;Samples;Min_cycle;Max_cycle;Signal;HPM_P1;HPM_P2
2022/01/18 00:00:46;;;;;;;66.18;6.97;;;6.20;99.90;;;;;;5090631;28;20044;-52
2022/01/18 00:03:12;;;;;;;52.58;5.82;;;6.00;99.90;;;;;;5090550;28;20054;-50
2022/01/18 00:05:38;;;;;;;73.07;7.03;;;6.00;99.90;;;;;;5090701;28;20032;-52
2022/01/18 00:08:04;;;;;;;51.08;5.60;;;6.00;99.90;;;;;;5090521;28;20461;-53
2022/01/18 00:10:32;;;;;;;56.40;6.10;;;6.00;99.90;;;;;;5090634;28;20047;-49
2022/01/18 00:18:11;;;;;;;84.32;7.47;;;6.20;99.90;;;;;;5090377;28;20067;-53
2022/01/18 00:23:34;;;;;;;70.55;7.25;;;6.20;99.90;;;;;;5090907;28;20047;-52
2022/01/18 00:26:01;;;;;;;52.25;5.38;;;6.20;99.90;;;;;;5090041;28;20055;-53
2022/01/18 00:28:28;;;;;;;62.83;6.85;;;6.30;99.90;;;;;;5090482;28;20087;-52
2022/01/18 00:39:11;;;;;;;54.05;7.03;;;6.30;99.90;;;;;;5054585;28;20123;-53
2022/01/18 00:41:39;;;;;;;71.20;8.55;;;6.30;99.90;;;;;;5090927;28;20130;-53
2022/01/18 00:44:06;;;;;;;68.93;6.60;;;6.30;99.90;;;;;;5094099;28;20514;-53
2022/01/18 00:46:32;;;;;;;66.65;8.07;;;6.30;99.90;;;;;;5094606;28;20036;-53
2022/01/18 00:49:01;;;;;;;55.90;8.27;;;6.10;99.90;;;;;;5094476;28;20043;-51
2022/01/18 00:51:29;;;;;;;64.82;8.00;;;6.10;99.90;;;;;;5094360;28;20047;-52
2022/01/18 00:53:57;;;;;;;58.60;6.90;;;6.20;99.90;;;;;;5094589;28;20043;-49
2022/01/18 00:56:27;;;;;;;62.22;6.57;;;6.30;99.90;;;;;;5094253;28;20473;-52
2022/01/18 00:58:53;;;;;;;53.10;5.57;;;6.70;99.90;;;;;;5094491;28;20115;-51
2022/01/18 01:01:22;;;;;;;52.85;5.25;;;5.90;99.90;;;;;;5093673;28;20509;-50
2022/01/18 01:03:48;;;;;;;50.28;6.70;;;6.20;99.90;;;;;;5093875;28;20064;-52
2022/01/18 01:06:15;;;;;;;44.50;5.80;;;7.20;99.90;;;;;;5093470;28;20541;-48
2022/01/18 01:08:40;;;;;;;61.33;7.43;;;6.20;99.90;;;;;;5093724;28;20040;-52
2022/01/18 01:11:08;;;;;;;51.17;4.88;;;6.10;99.90;;;;;;5093639;28;20113;-49
2022/01/18 01:13:36;;;;;;;59.00;6.60;;;7.00;99.90;;;;;;5093924;28;20044;-52
2022/01/18 01:16:17;;;;;;;48.85;6.18;;;6.10;99.90;;;;;;5093781;28;20043;-48
2022/01/18 01:34:52;;;;;;;53.17;6.15;;;5.80;99.90;;;;;;5093724;28;20048;-51
2022/01/18 01:45:23;;;;;;;47.10;6.75;;;5.80;99.90;;;;;;5053069;28;20059;-52
2022/01/18 01:47:51;;;;;;;53.92;7.20;;;5.90;99.90;;;;;;5053047;28;20045;-48
2022/01/18 01:50:20;;;;;;;55.13;7.25;;;6.50;99.90;;;;;;5051402;28;20045;-51
2022/01/18 01:52:47;;;;;;;57.60;8.05;;;5.80;99.90;;;;;;5052573;28;20049;-50
2022/01/18 01:55:14;;;;;;;54.75;7.68;;;5.70;99.90;;;;;;5050689;28;20061;-48
2022/01/18 01:57:40;;;;;;;61.03;7.20;;;6.70;99.90;;;;;;5053103;28;20049;-51
2022/01/18 02:00:11;;;;;;;54.78;5.85;;;6.30;99.90;;;;;;5052503;28;20091;-52
2022/01/18 02:02:37;;;;;;;61.50;6.80;;;5.90;99.90;;;;;;5051338;28;20379;-51
2022/01/18 02:05:06;;;;;;;62.70;7.63;;;5.90;99.90;;;;;;5052394;28;20041;-50
2022/01/18 02:07:31;;;;;;;57.95;6.65;;;5.90;99.90;;;;;;5052125;28;20041;-49
2022/01/18 02:09:57;;;;;;;44.22;6.95;;;5.90;99.90;;;;;;5052575;28;20036;-47
2022/01/18 02:12:24;;;;;;;57.63;7.72;;;5.90;99.90;;;;;;5052088;28;20100;-52
2022/01/18 02:14:57;;;;;;;50.47;6.90;;;5.90;99.90;;;;;;5052489;28;20053;-51
2022/01/18 02:22:53;;;;;;;41.78;6.72;;;6.00;99.90;;;;;;5052296;28;20476;-52
2022/01/18 02:25:19;;;;;;;55.75;8.02;;;5.90;99.90;;;;;;5052137;28;20394;-52
2022/01/18 02:27:45;;;;;;;60.17;10.02;;;6.10;99.90;;;;;;5052179;28;20051;-52
2022/01/18 02:30:11;;;;;;;52.65;6.60;;;6.80;99.90;;;;;;5052205;28;20041;-52
2022/01/18 02:32:37;;;;;;;49.45;7.05;;;5.90;99.90;;;;;;5050604;28;20124;-51
2022/01/18 02:35:04;;;;;;;59.05;8.32;;;5.90;99.90;;;;;;5052383;28;20225;-53
2022/01/18 02:37:30;;;;;;;51.30;7.53;;;5.90;99.90;;;;;;5055234;28;20039;-51
2022/01/18 02:39:56;;;;;;;50.35;6.93;;;5.90;99.90;;;;;;5092024;28;20059;-53
2022/01/18 02:42:28;;;;;;;60.15;7.70;;;5.90;99.90;;;;;;5090758;28;20048;-52
2022/01/18 02:44:54;;;;;;;62.72;7.68;;;5.40;99.90;;;;;;5092362;28;20040;-51
2022/01/18 02:47:22;;;;;;;52.60;7.28;;;7.00;99.90;;;;;;5091946;28;20028;-52
2022/01/18 02:49:49;;;;;;;61.28;7.90;;;5.90;99.90;;;;;;5092253;28;20032;-48
2022/01/18 02:52:16;;;;;;;56.92;7.47;;;5.80;99.90;;;;;;5092067;28;20036;-52
2022/01/18 02:54:42;;;;;;;63.25;8.57;;;5.90;99.90;;;;;;5091886;28;20048;-49
2022/01/18 02:57:14;;;;;;;55.25;7.43;;;5.90;99.90;;;;;;5091919;28;20043;-51
2022/01/18 02:59:50;;;;;;;56.03;7.13;;;5.90;99.90;;;;;;5091751;28;20039;-52
2022/01/18 03:05:08;;;;;;;44.75;7.43;;;6.00;99.90;;;;;;5089010;28;20038;-53
2022/01/18 03:07:33;;;;;;;53.42;8.02;;;5.90;99.90;;;;;;5091005;28;20043;-52
2022/01/18 03:09:59;;;;;;;54.20;7.28;;;6.50;99.90;;;;;;5091604;28;20123;-51
2022/01/18 03:12:25;;;;;;;49.85;8.80;;;6.30;99.90;;;;;;5091254;28;20364;-50
2022/01/18 03:14:51;;;;;;;55.78;6.88;;;7.10;99.90;;;;;;5091572;28;20066;-49
2022/01/18 03:17:17;;;;;;;52.90;6.88;;;6.00;99.90;;;;;;5091536;28;20114;-49
2022/01/18 03:19:43;;;;;;;48.85;8.52;;;6.10;99.90;;;;;;5091026;28;20470;-50
2022/01/18 03:22:09;;;;;;;49.63;8.48;;;5.90;99.90;;;;;;5089942;28;20103;-53
2022/01/18 03:24:47;;;;;;;51.83;9.55;;;6.00;99.90;;;;;;5090898;28;20381;-52
2022/01/18 03:29:59;;;;;;;49.78;8.50;;;6.00;99.90;;;;;;5091501;28;20128;-49
2022/01/18 03:32:25;;;;;;;52.63;7.53;;;6.00;99.90;;;;;;5091134;28;20048;-52
2022/01/18 03:34:51;;;;;;;40.50;6.18;;;6.00;99.90;;;;;;5091032;28;20040;-52
2022/01/18 03:37:17;;;;;;;49.72;6.18;;;6.00;99.90;;;;;;5089617;28;20043;-50
2022/01/18 03:39:42;;;;;;;46.38;5.88;;;6.00;99.90;;;;;;5089774;28;20051;-51
2022/01/18 03:44:56;;;;;;;46.15;5.00;;;6.00;99.90;;;;;;5091235;28;20051;-52
2022/01/18 03:47:22;;;;;;;34.00;4.95;;;6.00;99.90;;;;;;5091158;28;20051;-53
2022/01/18 03:49:47;;;;;;;41.53;5.28;;;6.00;99.90;;;;;;5089366;28;20040;-50
2022/01/18 03:52:13;;;;;;;38.97;5.13;;;6.00;99.90;;;;;;5091032;28;20052;-53
2022/01/18 03:54:43;;;;;;;51.58;5.80;;;6.00;99.90;;;;;;5090994;28;20124;-52
2022/01/18 03:57:10;;;;;;;36.08;6.13;;;6.00;99.90;;;;;;5090701;28;20035;-52
2022/01/18 03:59:36;;;;;;;50.60;5.45;;;5.90;99.90;;;;;;5090600;28;20036;-52
2022/01/18 04:02:02;;;;;;;35.55;4.47;;;6.00;99.90;;;;;;5090760;28;20550;-52
2022/01/18 04:04:28;;;;;;;42.15;5.20;;;6.00;99.90;;;;;;5090770;28;20039;-52
2022/01/18 04:06:53;;;;;;;38.67;4.40;;;7.30;99.90;;;;;;5090235;28;20039;-52
2022/01/18 04:09:20;;;;;;;45.00;4.50;;;6.80;99.90;;;;;;5090578;28;20032;-51
2022/01/18 04:11:46;;;;;;;44.40;4.68;;;6.00;99.90;;;;;;5090389;28;20132;-48
2022/01/18 04:14:12;;;;;;;36.17;3.92;;;6.00;99.90;;;;;;5090650;28;20060;-51
2022/01/18 04:16:55;;;;;;;29.13;3.83;;;7.30;99.90;;;;;;5089830;28;20449;-52
2022/01/18 04:25:56;;;;;;;33.92;4.05;;;6.00;99.90;;;;;;5090553;28;20039;-48
2022/01/18 04:27:41;;;;;;;34.05;3.47;;;6.00;99.90;;;;;;5090808;28;20052;-52
2022/01/18 04:30:07;;;;;;;26.65;3.10;;;6.00;99.90;;;;;;5090718;28;20470;-53
2022/01/18 04:32:33;;;;;;;34.45;4.65;;;6.00;99.90;;;;;;5090700;28;20516;-53
2022/01/18 04:34:58;;;;;;;36.58;4.45;;;6.00;99.90;;;;;;5090386;28;20044;-53
2022/01/18 04:37:24;;;;;;;35.63;4.60;;;6.00;99.90;;;;;;5088483;28;20066;-51
2022/01/18 04:39:50;;;;;;;32.70;5.38;;;6.00;99.90;;;;;;5088300;28;20048;-53
2022/01/18 04:42:48;;;;;;;26.30;4.65;;;7.40;99.90;;;;;;5090502;28;20089;-51
2022/01/18 04:50:42;;;;;;;25.83;3.30;;;5.90;99.90;;;;;;5090251;28;20135;-51
2022/01/18 04:53:08;;;;;;;29.70;4.50;;;6.00;99.90;;;;;;5090365;28;20528;-52
2022/01/18 04:55:35;;;;;;;29.05;4.38;;;5.90;99.90;;;;;;5090384;28;20059;-51
2022/01/18 04:58:01;;;;;;;26.42;3.60;;;6.00;99.90;;;;;;5089036;28;20440;-51
2022/01/18 05:00:26;;;;;;;31.77;4.57;;;5.80;99.90;;;;;;5090427;28;20044;-51
2022/01/18 05:02:53;;;;;;;33.75;3.45;;;6.90;99.90;;;;;;5090136;28;20375;-51
2022/01/18 05:05:33;;;;;;;29.70;4.05;;;6.90;99.90;;;;;;5090328;28;20028;-48
2022/01/18 05:07:59;;;;;;;23.63;3.38;;;5.90;99.90;;;;;;5089369;28;20607;-51
2022/01/18 05:10:28;;;;;;;27.65;4.43;;;5.90;99.90;;;;;;5089849;28;20048;-52
2022/01/18 05:12:56;;;;;;;26.15;3.78;;;5.80;99.90;;;;;;5089536;28;20052;-49
2022/01/18 05:23:15;;;;;;;27.23;3.15;;;5.90;99.90;;;;;;5090289;28;20059;-53
2022/01/18 05:25:41;;;;;;;24.77;2.92;;;5.90;99.90;;;;;;5078736;28;20041;-59
2022/01/18 05:28:07;;;;;;;28.55;3.03;;;5.90;99.90;;;;;;5064705;28;20044;-60
2022/01/18 05:30:33;;;;;;;20.35;2.85;;;5.80;99.90;;;;;;5072672;28;20054;-58
2022/01/18 05:32:59;;;;;;;30.10;2.80;;;5.90;99.90;;;;;;5072402;28;20047;-56
2022/01/18 05:35:28;;;;;;;34.25;4.05;;;6.60;99.90;;;;;;5071448;28;20092;-59
2022/01/18 05:37:53;;;;;;;35.13;4.50;;;5.80;99.90;;;;;;5074238;28;20086;-61
2022/01/18 05:40:20;;;;;;;23.98;3.08;;;5.80;99.90;;;;;;5074774;28;20494;-61
2022/01/18 05:42:46;;;;;;;26.25;3.33;;;6.80;99.90;;;;;;5074765;28;20048;-61
2022/01/18 05:45:12;;;;;;;28.67;3.00;;;5.80;99.90;;;;;;5074596;28;20040;-59
2022/01/18 05:47:39;;;;;;;29.02;3.30;;;5.80;99.90;;;;;;5077064;28;20041;-60
2022/01/18 05:50:06;;;;;;;30.20;3.97;;;5.80;99.90;;;;;;5075034;28;20453;-62
2022/01/18 05:52:33;;;;;;;19.20;2.42;;;5.80;99.90;;;;;;5073074;28;20116;-63
2022/01/18 05:54:58;;;;;;;21.80;2.30;;;5.80;99.90;;;;;;5072060;28;20044;-57
2022/01/18 05:57:24;;;;;;;22.90;2.47;;;5.80;99.90;;;;;;5070305;28;20089;-55
2022/01/18 05:59:50;;;;;;;23.50;3.03;;;6.60;99.90;;;;;;5073208;28;20024;-61
2022/01/18 06:02:35;;;;;;;24.30;2.33;;;5.80;99.90;;;;;;5073853;28;20067;-61
2022/01/18 06:07:45;;;;;;;30.92;2.58;;;5.80;99.90;;;;;;5071618;28;20379;-62
2022/01/18 06:10:10;;;;;;;27.58;3.47;;;5.40;99.90;;;;;;5072957;28;20094;-41
2022/01/18 06:12:36;;;;;;;30.08;2.67;;;5.80;99.90;;;;;;5072611;28;20131;-43
2022/01/18 06:15:02;;;;;;;25.25;3.92;;;5.80;99.90;;;;;;5072133;28;20113;-41
2022/01/18 06:17:28;;;;;;;26.13;2.53;;;5.80;99.90;;;;;;5071537;28;20044;-41
2022/01/18 06:19:54;;;;;;;17.48;1.75;;;5.80;99.90;;;;;;5071312;28;20402;-40
2022/01/18 06:22:20;;;;;;;22.25;2.28;;;5.80;99.90;;;;;;5072247;28;20043;-40
2022/01/18 06:24:45;;;;;;;23.88;1.67;;;5.80;99.90;;;;;;5072340;28;20100;-40
2022/01/18 06:27:11;;;;;;;18.83;1.67;;;5.80;99.90;;;;;;5071802;28;20398;-42
2022/01/18 06:29:38;;;;;;;15.32;1.88;;;6.10;99.90;;;;;;5071973;28;20047;-41
2022/01/18 06:32:05;;;;;;;21.90;2.03;;;5.80;99.90;;;;;;5071694;28;20056;-41
2022/01/18 06:34:31;;;;;;;16.67;2.83;;;5.80;99.90;;;;;;5071880;28;20037;-41
2022/01/18 06:36:57;;;;;;;23.92;2.05;;;5.70;99.90;;;;;;5071573;28;20107;-40
2022/01/18 06:39:23;;;;;;;19.05;1.88;;;5.70;99.90;;;;;;5086749;28;20562;-41
2022/01/18 06:41:49;;;;;;;17.98;3.05;;;3.20;99.90;;;;;;5092091;28;20040;-40
2022/01/18 06:44:15;;;;;;;17.70;1.92;;;6.70;99.90;;;;;;5091610;28;20104;-41
2022/01/18 06:46:41;;;;;;;31.08;4.63;;;5.70;99.90;;;;;;5092048;28;20040;-40
2022/01/18 06:49:07;;;;;;;16.25;1.92;;;5.60;99.90;;;;;;5091693;28;20032;-42
2022/01/18 06:51:34;;;;;;;18.42;2.03;;;5.60;99.90;;;;;;5091788;28;20501;-41
2022/01/18 06:53:59;;;;;;;18.77;2.45;;;5.60;99.90;;;;;;5091577;28;20044;-41
2022/01/18 06:56:26;;;;;;;16.17;1.60;;;5.30;99.90;;;;;;5091644;28;20073;-41
2022/01/18 06:58:53;;;;;;;22.67;2.63;;;5.50;99.90;;;;;;5091763;28;20058;-41
2022/01/18 07:01:19;;;;;;;16.58;1.83;;;5.50;99.90;;;;;;5091552;28;20047;-41
2022/01/18 07:03:48;;;;;;;21.67;1.67;;;6.70;99.90;;;;;;5091485;28;20925;-40
2022/01/18 07:06:17;;;;;;;19.08;2.72;;;5.40;99.90;;;;;;5091123;28;20047;-40
2022/01/18 07:08:42;;;;;;;12.25;1.38;;;5.40;99.90;;;;;;5091473;28;20043;-41
2022/01/18 07:11:08;;;;;;;21.80;1.73;;;6.30;99.90;;;;;;5090947;28;20040;-41
2022/01/18 07:13:34;;;;;;;16.95;1.92;;;5.40;99.90;;;;;;5091136;28;20060;-41
2022/01/18 07:16:00;;;;;;;24.65;3.78;;;5.40;99.90;;;;;;5090969;28;20072;-40
2022/01/18 07:18:27;;;;;;;14.63;2.08;;;5.40;99.90;;;;;;5091388;28;20056;-41
2022/01/18 07:20:53;;;;;;;21.20;1.55;;;5.40;99.90;;;;;;5091123;28;20040;-43
2022/01/18 07:23:19;;;;;;;17.17;1.63;;;5.30;99.90;;;;;;5091155;28;20036;-41
2022/01/18 07:25:47;;;;;;;17.42;1.52;;;5.50;99.90;;;;;;5091145;28;20044;-41
2022/01/18 07:28:15;;;;;;;26.95;2.35;;;5.40;99.90;;;;;;5090847;28;20119;-41
2022/01/18 07:30:42;;;;;;;12.82;1.63;;;5.40;99.90;;;;;;5090927;28;20086;-40
2022/01/18 07:33:12;;;;;;;16.65;1.50;;;5.50;99.90;;;;;;5090713;28;20482;-41
2022/01/18 07:35:38;;;;;;;17.75;1.70;;;5.20;99.90;;;;;;5091046;28;20071;-41
2022/01/18 07:38:05;;;;;;;14.15;1.40;;;5.40;99.90;;;;;;5088342;28;20117;-41
2022/01/18 07:40:32;;;;;;;14.02;2.05;;;5.50;99.90;;;;;;5090693;28;20497;-41
2022/01/18 07:43:01;;;;;;;15.80;1.63;;;5.50;99.90;;;;;;5090709;28;20397;-40
2022/01/18 07:45:27;;;;;;;14.27;1.55;;;5.50;99.90;;;;;;5090670;28;20047;-40
2022/01/18 07:47:53;;;;;;;10.95;1.30;;;5.50;99.90;;;;;;5091003;28;20123;-40
2022/01/18 07:50:19;;;;;;;20.92;1.70;;;5.50;99.90;;;;;;5090417;28;20114;-43
2022/01/18 07:52:44;;;;;;;20.77;1.50;;;5.60;99.90;;;;;;5090390;28;20048;-41
2022/01/18 07:55:10;;;;;;;18.08;1.60;;;6.70;99.90;;;;;;5090551;28;20118;-41
2022/01/18 07:57:42;;;;;;;16.08;2.63;;;5.50;99.90;;;;;;5090577;28;20363;-41
2022/01/18 08:00:10;;;;;;;21.67;1.33;;;5.60;99.90;;;;;;5089062;28;20584;-41
2022/01/18 08:02:37;;;;;;;23.50;2.20;;;5.60;99.90;;;;;;5090768;28;20120;-41
2022/01/18 08:05:04;;;;;;;14.13;1.52;;;5.60;99.90;;;;;;5090371;28;20051;-41
2022/01/18 08:07:30;;;;;;;17.00;2.10;;;5.60;99.90;;;;;;5090285;28;20068;-43
2022/01/18 08:09:56;;;;;;;17.85;1.65;;;6.20;99.90;;;;;;5090404;28;20086;-41
2022/01/18 08:12:23;;;;;;;15.93;1.45;;;5.70;99.90;;;;;;5089900;28;20048;-41
2022/01/18 08:14:50;;;;;;;19.55;2.22;;;5.70;99.90;;;;;;5090729;28;20048;-41
2022/01/18 08:17:16;;;;;;;21.90;1.63;;;5.70;99.90;;;;;;5088651;28;20048;-41
2022/01/18 08:19:42;;;;;;;18.83;1.70;;;5.70;99.90;;;;;;5090408;28;20040;-40
2022/01/18 08:22:09;;;;;;;8.15;1.50;;;6.20;99.90;;;;;;5089674;28;20559;-41
2022/01/18 08:24:35;;;;;;;15.15;1.50;;;5.80;99.90;;;;;;5090285;28;20040;-41
2022/01/18 08:27:02;;;;;;;11.43;1.20;;;5.80;99.90;;;;;;5090124;28;20051;-41
2022/01/18 08:29:27;;;;;;;13.25;1.52;;;5.80;99.90;;;;;;5089961;28;20036;-41
2022/01/18 08:31:53;;;;;;;21.30;1.50;;;5.90;99.90;;;;;;5090203;28;20032;-41
2022/01/18 08:34:21;;;;;;;13.70;2.47;;;5.90;99.90;;;;;;5089248;28;20504;-41
2022/01/18 08:36:46;;;;;;;23.15;2.08;;;5.90;99.90;;;;;;5089758;28;20044;-41
2022/01/18 08:39:12;;;;;;;14.20;1.95;;;6.00;99.90;;;;;;5087488;28;20044;-42
2022/01/18 08:41:38;;;;;;;18.77;1.92;;;6.70;99.90;;;;;;5090026;28;20044;-41
2022/01/18 08:44:05;;;;;;;14.88;1.77;;;6.10;99.90;;;;;;5090225;28;20067;-42
2022/01/18 08:46:33;;;;;;;12.63;1.55;;;6.00;99.90;;;;;;5089933;28;20044;-41
2022/01/18 08:48:58;;;;;;;10.48;2.17;;;6.00;99.90;;;;;;5090266;28;20040;-41
2022/01/18 08:51:26;;;;;;;12.68;1.60;;;6.10;99.90;;;;;;5089640;28;20482;-41
2022/01/18 08:53:52;;;;;;;27.55;2.33;;;7.20;99.90;;;;;;5090001;28;20055;-41
2022/01/18 08:56:20;;;;;;;14.82;2.50;;;6.10;99.90;;;;;;5089829;28;20456;-41
2022/01/18 08:58:47;;;;;;;22.08;3.50;;;6.10;99.90;;;;;;5090125;28;20126;-41
2022/01/18 09:01:13;;;;;;;13.48;2.72;;;6.20;99.90;;;;;;5090079;28;20083;-41
2022/01/18 09:03:39;;;;;;;19.88;2.97;;;6.10;99.90;;;;;;5091880;28;20462;-41
2022/01/18 09:06:06;;;;;;;19.75;2.22;;;6.20;99.90;;;;;;5093538;28;20619;-41
2022/01/18 09:08:36;;;;;;;11.73;2.25;;;6.10;99.90;;;;;;5092122;28;20477;-41
2022/01/18 09:11:05;;;;;;;18.70;2.63;;;6.30;99.90;;;;;;5093772;28;20447;-41
2022/01/18 09:13:34;;;;;;;15.15;2.85;;;6.30;99.90;;;;;;5093115;28;20139;-41
2022/01/18 09:16:00;;;;;;;14.10;3.45;;;6.30;99.90;;;;;;5093560;28;20044;-41
2022/01/18 09:18:27;;;;;;;14.20;2.97;;;6.40;99.90;;;;;;5093322;28;20397;-42
2022/01/18 09:20:52;;;;;;;18.15;3.78;;;6.40;99.90;;;;;;5093385;28;20039;-41
2022/01/18 09:23:18;;;;;;;13.90;2.63;;;6.40;99.90;;;;;;5093538;28;20036;-43
2022/01/18 09:25:44;;;;;;;16.77;2.47;;;6.40;99.90;;;;;;5093476;28;20032;-41
2022/01/18 09:28:10;;;;;;;21.10;4.30;;;6.50;99.90;;;;;;5093475;28;20447;-41
2022/01/18 09:30:37;;;;;;;14.02;2.78;;;6.50;99.90;;;;;;5093183;28;20044;-43
2022/01/18 09:33:06;;;;;;;19.75;3.42;;;6.50;99.90;;;;;;5093127;28;20485;-42
2022/01/18 09:35:35;;;;;;;21.58;3.50;;;7.70;99.90;;;;;;5091777;28;20457;-41
2022/01/18 09:38:02;;;;;;;14.00;4.05;;;6.70;99.90;;;;;;5091048;28;20123;-41
2022/01/18 09:40:28;;;;;;;15.90;3.10;;;6.70;99.90;;;;;;5093227;28;20452;-41
2022/01/18 09:42:59;;;;;;;18.60;3.17;;;6.70;99.90;;;;;;5093212;28;20048;-43
2022/01/18 09:45:27;;;;;;;19.27;3.60;;;6.80;99.90;;;;;;5091716;28;20451;-41
2022/01/18 09:47:55;;;;;;;13.27;3.22;;;7.90;99.90;;;;;;5092962;28;20488;-41
2022/01/18 09:50:27;;;;;;;16.33;3.20;;;6.80;99.90;;;;;;5093247;28;20067;-41
2022/01/18 09:52:55;;;;;;;13.32;3.00;;;6.80;99.90;;;;;;5093044;28;20085;-41
2022/01/18 09:55:24;;;;;;;16.83;3.95;;;7.10;99.90;;;;;;5092986;28;20048;-41
2022/01/18 09:57:50;;;;;;;20.00;3.47;;;6.90;99.90;;;;;;5093090;28;20458;-41
2022/01/18 10:00:17;;;;;;;22.02;3.47;;;7.50;99.90;;;;;;5092788;28;20482;-41
2022/01/18 10:02:43;;;;;;;12.93;2.85;;;7.00;99.90;;;;;;5092630;28;20048;-41
2022/01/18 10:05:26;;;;;;;13.73;3.38;;;7.70;99.90;;;;;;5093099;28;20085;-42
2022/01/18 10:08:09;;;;;;;20.23;3.28;;;7.00;99.90;;;;;;5092926;28;20438;-41
2022/01/18 10:10:48;;;;;;;18.15;4.28;;;7.00;99.90;;;;;;5092272;28;20044;-41
2022/01/18 10:13:22;;;;;;;17.05;3.78;;;7.10;99.90;;;;;;5092340;28;20095;-42
2022/01/18 10:16:07;;;;;;;10.50;3.13;;;7.20;99.90;;;;;;5091661;28;20059;-41
2022/01/18 10:18:44;;;;;;;13.80;3.47;;;7.20;99.90;;;;;;5092110;28;20056;-41
2022/01/18 10:21:11;;;;;;;15.27;3.70;;;7.30;99.90;;;;;;5092295;28;20047;-41
2022/01/18 10:23:38;;;;;;;24.33;3.58;;;7.60;99.90;;;;;;5092113;28;20043;-41
2022/01/18 10:26:25;;;;;;;9.90;3.67;;;7.40;99.90;;;;;;5092219;28;20115;-41
2022/01/18 10:29:05;;;;;;;11.77;1.92;;;7.50;99.90;;;;;;5091932;28;20115;-41
2022/01/18 10:31:54;;;;;;;19.27;2.88;;;7.50;99.90;;;;;;5092028;28;20040;-41
2022/01/18 10:34:28;;;;;;;12.10;2.83;;;7.60;99.90;;;;;;5090758;28;20056;-41
2022/01/18 10:37:01;;;;;;;12.95;2.08;;;7.60;99.90;;;;;;5091731;28;20044;-41
2022/01/18 10:39:36;;;;;;;;;;;7.70;99.90;;;;;;5088551;28;20402;-42
2022/01/18 10:42:13;;;;;;;14.60;1.70;;;7.70;99.90;;;;;;5091796;28;19920;-41
2022/01/18 10:44:39;;;;;;;13.77;2.17;;;7.80;99.90;;;;;;5091728;28;20040;-41
2022/01/18 10:47:05;;;;;;;10.07;0.85;;;7.80;99.90;;;;;;5091721;28;20079;-41
2022/01/18 10:49:39;;;;;;;13.30;1.25;;;7.90;99.90;;;;;;5092043;28;20090;-41
2022/01/18 10:52:10;;;;;;;12.68;1.70;;;9.00;99.90;;;;;;5091812;28;20058;-41
2022/01/18 10:54:39;;;;;;;8.07;1.38;;;8.10;99.90;;;;;;5091589;28;20098;-42
2022/01/18 10:57:07;;;;;;;11.18;1.67;;;8.10;99.90;;;;;;5091379;28;20067;-41
2022/01/18 10:59:37;;;;;;;10.35;1.75;;;8.10;99.90;;;;;;5091932;28;20036;-41
2022/01/18 11:02:13;;;;;;;7.55;1.27;;;8.10;99.90;;;;;;5091379;28;20055;-41
2022/01/18 11:04:58;;;;;;;11.70;2.15;;;8.80;99.90;;;;;;5089997;28;20563;-41
2022/01/18 11:07:26;;;;;;;8.80;1.40;;;7.90;99.90;;;;;;5091254;28;20092;-41
2022/01/18 11:09:53;;;;;;;12.32;2.05;;;7.80;99.90;;;;;;5091179;28;20036;-41
2022/01/18 11:12:22;;;;;;;13.52;2.17;;;7.70;99.90;;;;;;5091194;28;20413;-41
2022/01/18 11:14:59;;;;;;;18.08;1.52;;;8.00;99.90;;;;;;5091226;28;20059;-41
2022/01/18 11:17:26;;;;;;;12.48;1.00;;;7.80;99.90;;;;;;5091388;28;20048;-41
2022/01/18 11:19:55;;;;;;;8.27;1.00;;;9.60;99.90;;;;;;5089892;28;20083;-41
2022/01/18 11:22:24;;;;;;;8.15;0.80;;;8.00;99.90;;;;;;5091519;28;20051;-41
2022/01/18 11:24:51;;;;;;;7.05;1.08;;;8.80;99.90;;;;;;5091621;28;20066;-41
2022/01/18 11:27:18;;;;;;;11.15;1.38;;;8.10;99.90;;;;;;5090997;28;20047;-41
2022/01/18 11:29:49;;;;;;;10.90;1.30;;;8.80;99.90;;;;;;5090924;28;20062;-41
2022/01/18 11:32:17;;;;;;;15.93;1.95;;;8.80;99.90;;;;;;5091166;28;20462;-41
2022/01/18 11:34:54;;;;;;;9.32;1.65;;;8.00;99.90;;;;;;5090724;28;20067;-41
2022/01/18 11:37:40;;;;;;;11.85;2.17;;;8.00;99.90;;;;;;5089523;28;20550;-43
2022/01/18 11:40:14;;;;;;;15.40;2.33;;;7.90;99.90;;;;;;5050460;28;20518;-41
2022/01/18 11:42:59;;;;;;;11.38;1.98;;;7.60;99.90;;;;;;5050490;28;20499;-41
2022/01/18 11:45:24;;;;;;;20.20;4.43;;;7.90;99.90;;;;;;5050843;28;20047;-41
2022/01/18 11:48:18;;;;;;;15.02;2.55;;;7.90;99.90;;;;;;5050211;28;20119;-41
2022/01/18 11:51:05;;;;;;;10.32;2.22;;;7.60;99.90;;;;;;5048758;28;20080;-41
2022/01/18 11:56:09;;;;;;;13.80;3.47;;;7.90;99.90;;;;;;5050478;28;20144;-43
2022/01/18 11:58:35;;;;;;;14.52;2.67;;;8.00;99.90;;;;;;5050440;28;20546;-41
2022/01/18 12:01:02;;;;;;;16.42;3.15;;;7.90;99.90;;;;;;5050055;28;20039;-41
2022/01/18 12:03:30;;;;;;;19.38;4.47;;;7.90;99.90;;;;;;5050213;28;20060;-41
2022/01/18 12:05:59;;;;;;;13.32;2.40;;;8.00;99.90;;;;;;5049935;28;20044;-41
2022/01/18 12:08:36;;;;;;;15.20;2.55;;;8.40;99.90;;;;;;5050286;28;20037;-41
2022/01/18 12:11:04;;;;;;;13.27;2.47;;;8.40;99.90;;;;;;5050203;28;20387;-41
2022/01/18 12:13:36;;;;;;;15.18;2.67;;;7.90;99.90;;;;;;5049959;28;20061;-41
2022/01/18 12:16:10;;;;;;;13.13;2.30;;;7.90;99.90;;;;;;5032044;28;20049;-41
2022/01/18 12:18:52;;;;;;;13.32;2.90;;;7.80;99.90;;;;;;5050123;28;20441;-41
2022/01/18 12:21:20;;;;;;;;;;;7.70;99.90;;;;;;5050681;28;20045;-41
2022/01/18 12:23:46;;;;;;;17.92;2.88;;;7.70;99.90;;;;;;5050015;28;19966;-41
2022/01/18 12:26:42;;;;;;;9.75;2.10;;;8.40;99.90;;;;;;5050063;28;20080;-41
2022/01/18 12:29:34;;;;;;;13.65;3.17;;;7.70;99.90;;;;;;5050041;28;20056;-41
2022/01/18 12:32:19;;;;;;;17.83;3.50;;;7.70;99.90;;;;;;5049837;28;20044;-41
2022/01/18 12:34:48;;;;;;;13.45;2.63;;;7.60;99.90;;;;;;5048583;28;20106;-41
2022/01/18 12:37:16;;;;;;;16.63;3.38;;;7.60;99.90;;;;;;5050444;28;20064;-42
2022/01/18 12:45:12;;;;;;;;;;;7.50;99.90;;;;;;5057925;28;20044;-41
2022/01/18 12:48:02;;;;;;;10.68;2.10;;;7.50;99.90;;;;;;5073725;28;19916;-41
2022/01/18 12:50:33;;;;;;;18.27;2.15;;;7.40;99.90;;;;;;5074157;28;20036;-41
2022/01/18 12:53:00;;;;;;;9.80;1.98;;;7.30;99.90;;;;;;5074004;28;20386;-41
2022/01/18 12:55:44;;;;;;;11.60;2.10;;;7.40;99.90;;;;;;5074354;28;20508;-41
2022/01/18 12:58:16;;;;;;;14.63;1.80;;;8.30;99.90;;;;;;5073576;28;20036;-41
2022/01/18 13:00:53;;;;;;;13.50;2.63;;;7.30;99.90;;;;;;5072584;28;20106;-41
2022/01/18 13:03:21;;;;;;;15.10;2.42;;;7.30;99.90;;;;;;5073788;28;20131;-41
2022/01/18 13:05:48;;;;;;;18.67;3.13;;;7.70;99.90;;;;;;5073563;28;20048;-41
2022/01/18 13:08:17;;;;;;;13.38;2.33;;;7.30;99.90;;;;;;5073336;28;20119;-41
2022/01/18 13:10:46;;;;;;;8.50;2.45;;;7.80;99.90;;;;;;5073739;28;20393;-41
2022/01/18 13:13:15;;;;;;;13.40;3.08;;;7.20;99.90;;;;;;5073188;28;20060;-41
2022/01/18 13:26:33;;;;;;;11.32;2.05;;;7.10;99.90;;;;;;5073583;28;20041;-41
2022/01/18 13:29:10;;;;;;;10.90;2.10;;;7.10;99.90;;;;;;5073245;28;20043;-42
2022/01/18 13:31:36;;;;;;;6.03;1.58;;;7.10;99.90;;;;;;5073246;28;20040;-41
2022/01/18 13:34:03;;;;;;;12.48;1.70;;;7.10;99.90;;;;;;5073014;28;20402;-41
2022/01/18 13:36:31;;;;;;;7.70;2.25;;;8.30;99.90;;;;;;5072145;28;20543;-41
2022/01/18 13:39:17;;;;;;;9.00;1.95;;;7.00;99.90;;;;;;5085327;28;20048;-42
2022/01/18 13:41:43;;;;;;;11.68;2.35;;;7.00;99.90;;;;;;5093156;28;20493;-41
2022/01/18 13:44:09;;;;;;;8.48;1.85;;;8.00;99.90;;;;;;5093228;28;20040;-41
2022/01/18 13:46:34;;;;;;;8.07;2.03;;;7.50;99.90;;;;;;5093427;28;20105;-41
2022/01/18 13:49:05;;;;;;;11.15;1.90;;;7.00;99.90;;;;;;5090909;28;20044;-41
2022/01/18 13:51:31;;;;;;;13.75;2.30;;;7.10;99.90;;;;;;5093334;28;20385;-41
2022/01/18 13:54:06;;;;;;;7.65;2.25;;;7.30;99.90;;;;;;5093080;28;20032;-41
2022/01/18 13:56:33;;;;;;;15.38;2.40;;;6.90;99.90;;;;;;5093311;28;20063;-41
2022/01/18 13:59:05;;;;;;;8.23;1.50;;;7.80;99.90;;;;;;5092933;28;20036;-41
2022/01/18 14:01:36;;;;;;;9.02;2.28;;;6.70;99.90;;;;;;5093291;28;20481;-41
2022/01/18 14:04:15;;;;;;;12.70;2.50;;;6.60;99.90;;;;;;5092865;28;20127;-41
2022/01/18 14:06:42;;;;;;;15.90;3.45;;;6.50;99.90;;;;;;5092732;28;20047;-41
2022/01/18 14:09:09;;;;;;;11.75;3.63;;;6.50;99.90;;;;;;5092324;28;20051;-41
2022/01/18 14:11:36;;;;;;;13.82;3.38;;;6.40;99.90;;;;;;5092470;28;20113;-41
2022/01/18 14:14:15;;;;;;;9.63;2.70;;;7.10;99.90;;;;;;5093082;28;20048;-41
2022/01/18 14:16:47;;;;;;;18.45;3.38;;;6.10;99.90;;;;;;5092489;28;20060;-40
2022/01/18 14:19:13;;;;;;;19.02;4.03;;;6.00;99.90;;;;;;5092173;28;20039;-41
2022/01/18 14:21:47;;;;;;;18.23;4.60;;;6.20;99.90;;;;;;5090944;28;20389;-41
2022/01/18 14:24:39;;;;;;;15.88;3.70;;;6.00;99.90;;;;;;5092226;28;20074;-41
2022/01/18 14:27:13;;;;;;;15.18;4.30;;;6.00;99.90;;;;;;5092223;28;20067;-41
2022/01/18 14:29:41;;;;;;;18.33;3.72;;;6.30;99.90;;;;;;5092239;28;20068;-41
2022/01/18 14:32:15;;;;;;;17.85;4.10;;;5.90;99.90;;;;;;5091888;28;20092;-41